sensor_id;sensor_type;location;lat;lon;timestamp;temperature;humidity
9095;DHT22;4583;49.796;9.902;2023-03-23T00:04:17;15.10;68.20
9095;DHT22;4583;49.796;9.902;2023-03-23T00:14:18;15.10;68.10
9095;DHT22;4583;49.796;9.902;2023-03-23T00:24:22;15.20;68.70
9095;DHT22;4583;49.796;9.902;2023-03-23T00:38:56;15.10;68.70
9095;DHT22;4583;49.796;9.902;2023-03-23T00:49:01;15.10;69.10
9095;DHT22;4583;49.796;9.902;2023-03-23T00:59:03;15.10;69.70
9095;DHT22;4583;49.796;9.902;2023-03-23T01:09:03;15.00;70.30
9095;DHT22;4583;49.796;9.902;2023-03-23T01:19:04;15.00;69.70
9095;DHT22;4583;49.796;9.902;2023-03-23T01:29:05;15.00;69.50
9095;DHT22;4583;49.796;9.902;2023-03-23T01:39:06;15.00;69.70
9095;DHT22;4583;49.796;9.902;2023-03-23T01:49:27;15.00;68.80
9095;DHT22;4583;49.796;9.902;2023-03-23T01:59:32;14.90;68.70
9095;DHT22;4583;49.796;9.902;2023-03-23T02:09:34;14.90;69.30
9095;DHT22;4583;49.796;9.902;2023-03-23T02:40:01;14.80;68.40
9095;DHT22;4583;49.796;9.902;2023-03-23T02:50:10;14.80;68.40
9095;DHT22;4583;49.796;9.902;2023-03-23T03:00:14;14.70;67.70
9095;DHT22;4583;49.796;9.902;2023-03-23T03:20:21;14.60;68.40
9095;DHT22;4583;49.796;9.902;2023-03-23T03:30:26;14.70;68.10
9095;DHT22;4583;49.796;9.902;2023-03-23T03:40:28;14.60;68.30
9095;DHT22;4583;49.796;9.902;2023-03-23T03:50:29;14.60;69.00
9095;DHT22;4583;49.796;9.902;2023-03-23T04:00:30;14.50;68.50
9095;DHT22;4583;49.796;9.902;2023-03-23T04:10:31;14.60;68.50
9095;DHT22;4583;49.796;9.902;2023-03-23T04:20:32;14.60;68.80
9095;DHT22;4583;49.796;9.902;2023-03-23T04:30:35;14.50;68.90
9095;DHT22;4583;49.796;9.902;2023-03-23T04:40:36;14.50;69.10
9095;DHT22;4583;49.796;9.902;2023-03-23T04:50:37;14.50;69.30
9095;DHT22;4583;49.796;9.902;2023-03-23T05:00:38;14.50;69.30
9095;DHT22;4583;49.796;9.902;2023-03-23T05:10:39;14.40;70.10
9095;DHT22;4583;49.796;9.902;2023-03-23T05:20:40;14.40;70.90
9095;DHT22;4583;49.796;9.902;2023-03-23T05:30:42;14.20;71.60
9095;DHT22;4583;49.796;9.902;2023-03-23T05:40:44;14.10;74.00
9095;DHT22;4583;49.796;9.902;2023-03-23T05:50:45;13.90;76.40
9095;DHT22;4583;49.796;9.902;2023-03-23T06:00:45;13.90;78.30
9095;DHT22;4583;49.796;9.902;2023-03-23T06:10:47;13.80;80.30
9095;DHT22;4583;49.796;9.902;2023-03-23T06:20:48;13.80;81.50
9095;DHT22;4583;49.796;9.902;2023-03-23T06:30:49;13.80;84.80
9095;DHT22;4583;49.796;9.902;2023-03-23T06:40:52;13.80;88.40
9095;DHT22;4583;49.796;9.902;2023-03-23T06:50:53;13.90;90.10
9095;DHT22;4583;49.796;9.902;2023-03-23T07:00:57;14.00;90.30
9095;DHT22;4583;49.796;9.902;2023-03-23T07:10:58;14.30;86.70
9095;DHT22;4583;49.796;9.902;2023-03-23T07:20:59;14.20;87.00
9095;DHT22;4583;49.796;9.902;2023-03-23T07:31:00;14.50;83.80
9095;DHT22;4583;49.796;9.902;2023-03-23T07:41:01;14.60;81.40
9095;DHT22;4583;49.796;9.902;2023-03-23T07:51:02;14.60;81.70
9095;DHT22;4583;49.796;9.902;2023-03-23T08:01:03;14.80;80.30
9095;DHT22;4583;49.796;9.902;2023-03-23T08:18:16;14.90;81.40
9095;DHT22;4583;49.796;9.902;2023-03-23T08:28:17;14.90;82.10
9095;DHT22;4583;49.796;9.902;2023-03-23T08:38:18;14.90;83.60
9095;DHT22;4583;49.796;9.902;2023-03-23T08:48:21;14.80;84.50
9095;DHT22;4583;49.796;9.902;2023-03-23T08:58:22;15.00;85.70
9095;DHT22;4583;49.796;9.902;2023-03-23T09:13:18;15.10;86.60
9095;DHT22;4583;49.796;9.902;2023-03-23T09:23:19;15.10;87.10
9095;DHT22;4583;49.796;9.902;2023-03-23T09:33:20;15.40;87.20
9095;DHT22;4583;49.796;9.902;2023-03-23T09:43:46;15.50;87.10
9095;DHT22;4583;49.796;9.902;2023-03-23T09:53:54;15.40;87.60
9095;DHT22;4583;49.796;9.902;2023-03-23T10:04:05;15.40;87.60
9095;DHT22;4583;49.796;9.902;2023-03-23T10:14:31;15.50;88.40
9095;DHT22;4583;49.796;9.902;2023-03-23T10:24:50;15.50;87.70
9095;DHT22;4583;49.796;9.902;2023-03-23T10:34:57;15.70;86.50
9095;DHT22;4583;49.796;9.902;2023-03-23T10:45:12;15.80;85.70
9095;DHT22;4583;49.796;9.902;2023-03-23T10:55:21;16.20;84.20
9095;DHT22;4583;49.796;9.902;2023-03-23T11:05:26;16.60;82.90
9095;DHT22;4583;49.796;9.902;2023-03-23T11:15:42;16.80;82.20
9095;DHT22;4583;49.796;9.902;2023-03-23T11:35:54;16.70;80.60
9095;DHT22;4583;49.796;9.902;2023-03-23T11:46:25;16.50;79.60
9095;DHT22;4583;49.796;9.902;2023-03-23T11:56:35;16.50;80.50
9095;DHT22;4583;49.796;9.902;2023-03-23T12:07:18;16.50;81.20
9095;DHT22;4583;49.796;9.902;2023-03-23T12:57:39;16.60;86.70
9095;DHT22;4583;49.796;9.902;2023-03-23T13:07:26;16.70;87.30
9095;DHT22;4583;49.796;9.902;2023-03-23T13:27:36;17.30;86.00
9095;DHT22;4583;49.796;9.902;2023-03-23T13:37:42;17.40;85.60
9095;DHT22;4583;49.796;9.902;2023-03-23T13:47:45;17.60;84.30
9095;DHT22;4583;49.796;9.902;2023-03-23T14:18:14;16.90;85.40
9095;DHT22;4583;49.796;9.902;2023-03-23T14:28:20;16.70;85.40
9095;DHT22;4583;49.796;9.902;2023-03-23T14:38:23;16.40;85.90
9095;DHT22;4583;49.796;9.902;2023-03-23T14:48:28;16.40;86.60
9095;DHT22;4583;49.796;9.902;2023-03-23T14:58:29;16.40;86.50
9095;DHT22;4583;49.796;9.902;2023-03-23T15:08:33;16.10;85.40
9095;DHT22;4583;49.796;9.902;2023-03-23T15:18:36;15.90;85.70
9095;DHT22;4583;49.796;9.902;2023-03-23T15:28:40;15.70;85.90
9095;DHT22;4583;49.796;9.902;2023-03-23T15:38:44;15.50;86.80
9095;DHT22;4583;49.796;9.902;2023-03-23T15:48:51;15.40;87.40
9095;DHT22;4583;49.796;9.902;2023-03-23T15:58:53;15.40;88.80
9095;DHT22;4583;49.796;9.902;2023-03-23T16:08:55;15.60;88.30
9095;DHT22;4583;49.796;9.902;2023-03-23T16:18:57;15.60;88.10
9095;DHT22;4583;49.796;9.902;2023-03-23T16:28:59;15.60;88.20
9095;DHT22;4583;49.796;9.902;2023-03-23T16:39:17;15.50;88.10
9095;DHT22;4583;49.796;9.902;2023-03-23T16:49:19;15.40;88.30
9095;DHT22;4583;49.796;9.902;2023-03-23T16:59:21;15.30;88.40
9095;DHT22;4583;49.796;9.902;2023-03-23T17:09:23;15.20;88.60
9095;DHT22;4583;49.796;9.902;2023-03-23T17:19:27;15.20;89.30
9095;DHT22;4583;49.796;9.902;2023-03-23T17:29:28;15.10;88.90
9095;DHT22;4583;49.796;9.902;2023-03-23T17:39:30;15.10;89.30
9095;DHT22;4583;49.796;9.902;2023-03-23T17:49:44;15.10;89.30
9095;DHT22;4583;49.796;9.902;2023-03-23T17:59:45;15.10;89.50
9095;DHT22;4583;49.796;9.902;2023-03-23T18:09:48;15.00;90.00
9095;DHT22;4583;49.796;9.902;2023-03-23T18:19:50;16.30;90.90
9095;DHT22;4583;49.796;9.902;2023-03-23T18:29:52;15.10;90.20
9095;DHT22;4583;49.796;9.902;2023-03-23T18:39:53;15.10;90.40
9095;DHT22;4583;49.796;9.902;2023-03-23T18:49:55;15.10;90.50
9095;DHT22;4583;49.796;9.902;2023-03-23T19:09:59;15.00;90.90
9095;DHT22;4583;49.796;9.902;2023-03-23T19:20:01;15.00;91.00
9095;DHT22;4583;49.796;9.902;2023-03-23T19:30:04;15.00;91.20
9095;DHT22;4583;49.796;9.902;2023-03-23T19:40:06;14.90;91.20
9095;DHT22;4583;49.796;9.902;2023-03-23T19:50:28;14.90;91.30
9095;DHT22;4583;49.796;9.902;2023-03-23T20:00:29;14.80;91.60
9095;DHT22;4583;49.796;9.902;2023-03-23T20:10:35;14.80;91.90
9095;DHT22;4583;49.796;9.902;2023-03-23T20:20:37;14.80;92.00
9095;DHT22;4583;49.796;9.902;2023-03-23T20:30:39;14.70;92.20
9095;DHT22;4583;49.796;9.902;2023-03-23T20:40:40;14.70;92.40
9095;DHT22;4583;49.796;9.902;2023-03-23T20:50:42;14.70;92.60
9095;DHT22;4583;49.796;9.902;2023-03-23T21:00:44;14.60;92.60
9095;DHT22;4583;49.796;9.902;2023-03-23T21:10:48;14.60;92.80
9095;DHT22;4583;49.796;9.902;2023-03-23T21:20:50;14.50;92.90
9095;DHT22;4583;49.796;9.902;2023-03-23T21:30:51;14.50;93.10
9095;DHT22;4583;49.796;9.902;2023-03-23T21:40:56;14.40;93.20
9095;DHT22;4583;49.796;9.902;2023-03-23T21:51:12;14.30;93.30
9095;DHT22;4583;49.796;9.902;2023-03-23T22:01:16;14.30;93.30
9095;DHT22;4583;49.796;9.902;2023-03-23T22:11:21;14.30;93.40
9095;DHT22;4583;49.796;9.902;2023-03-23T22:31:31;14.30;93.50
9095;DHT22;4583;49.796;9.902;2023-03-23T22:41:37;14.20;93.70
9095;DHT22;4583;49.796;9.902;2023-03-23T22:51:40;14.10;93.80
9095;DHT22;4583;49.796;9.902;2023-03-23T23:01:44;14.10;94.10
9095;DHT22;4583;49.796;9.902;2023-03-23T23:11:46;14.00;94.10
9095;DHT22;4583;49.796;9.902;2023-03-23T23:21:47;13.90;94.40
9095;DHT22;4583;49.796;9.902;2023-03-23T23:31:49;13.90;94.40
